createdAt,value
2018-12-30T00:02:04.621Z,96.18
2018-12-30T00:04:34.869Z,95.65
2018-12-30T00:07:05.652Z,96.00
2018-12-30T00:09:36.966Z,96.18
2018-12-30T00:12:07.474Z,96.48
2018-12-30T00:14:37.881Z,96.68
2018-12-30T00:17:08.210Z,97.15
2018-12-30T00:19:42.336Z,97.23
2018-12-30T00:22:10.671Z,97.41
2018-12-30T00:24:40.942Z,97.23
2018-12-30T00:27:11.113Z,97.25
2018-12-30T00:29:41.510Z,97.10
2018-12-30T00:32:11.837Z,97.27
2018-12-30T00:34:42.645Z,97.96
2018-12-30T00:37:12.796Z,97.83
2018-12-30T00:39:43.001Z,98.10
2018-12-30T00:42:13.234Z,97.75
2018-12-30T00:44:43.357Z,97.38
2018-12-30T00:47:14.013Z,98.00
2018-12-30T00:49:44.273Z,97.59
2018-12-30T00:52:14.658Z,98.19
2018-12-30T00:54:44.921Z,98.04
2018-12-30T00:57:15.187Z,98.68
2018-12-30T00:59:45.893Z,99.05
2018-12-30T01:02:16.178Z,98.95
2018-12-30T01:04:46.434Z,98.97
2018-12-30T01:07:17.829Z,99.12
2018-12-30T01:09:48.154Z,98.80
2018-12-30T01:12:20.757Z,99.15
2018-12-30T01:14:51.010Z,98.79
2018-12-30T01:17:21.227Z,99.15
2018-12-30T01:19:51.743Z,99.44
2018-12-30T01:22:21.966Z,99.08
2018-12-30T01:24:52.254Z,99.03
2018-12-30T01:27:22.536Z,99.16
2018-12-30T01:29:59.640Z,98.45
2018-12-30T01:32:29.955Z,97.78
2018-12-30T01:35:00.517Z,97.25
2018-12-30T01:37:30.815Z,97.40
2018-12-30T01:40:01.098Z,97.73
2018-12-30T01:42:31.485Z,97.48
2018-12-30T01:45:01.895Z,97.86
2018-12-30T01:47:32.378Z,97.51
2018-12-30T01:50:02.705Z,97.17
2018-12-30T01:52:32.948Z,96.36
2018-12-30T01:55:03.350Z,96.07
2018-12-30T01:57:33.636Z,95.96
2018-12-30T02:00:04.047Z,96.36
2018-12-30T02:02:34.347Z,96.45
2018-12-30T02:05:04.672Z,95.62
2018-12-30T02:07:34.919Z,95.17
2018-12-30T02:10:05.994Z,95.18
2018-12-30T02:12:36.309Z,95.63
2018-12-30T02:15:06.861Z,95.46
2018-12-30T02:17:37.172Z,95.52
2018-12-30T02:20:07.590Z,94.97
2018-12-30T02:22:37.860Z,94.43
2018-12-30T02:25:08.196Z,94.70
2018-12-30T02:27:38.479Z,94.27
2018-12-30T02:30:08.963Z,94.46
2018-12-30T02:32:39.477Z,93.90
2018-12-30T02:35:09.761Z,93.94
2018-12-30T02:37:40.070Z,93.98
2018-12-30T02:40:10.359Z,93.87
2018-12-30T02:42:40.703Z,93.19
2018-12-30T02:45:11.008Z,93.09
2018-12-30T02:47:41.156Z,93.35
2018-12-30T02:50:11.465Z,92.32
2018-12-30T02:52:41.598Z,92.56
2018-12-30T02:55:31.036Z,92.72
2018-12-30T02:58:12.803Z,93.15
2018-12-30T03:01:02.179Z,93.82
2018-12-30T03:03:44.582Z,93.48
2018-12-30T03:06:33.923Z,93.67
2018-12-30T03:09:16.235Z,94.10
2018-12-30T03:12:05.604Z,94.28
2018-12-30T03:14:48.031Z,93.74
2018-12-30T03:17:37.419Z,93.72
2018-12-30T03:20:19.123Z,92.95
2018-12-30T03:23:08.605Z,93.73
2018-12-30T03:25:50.866Z,93.84
2018-12-30T03:28:40.222Z,94.33
2018-12-30T03:31:22.644Z,93.88
2018-12-30T03:34:11.976Z,94.22
2018-12-30T03:37:01.340Z,94.64
2018-12-30T03:39:43.706Z,94.86
2018-12-30T03:42:33.189Z,94.20
2018-12-30T03:45:15.514Z,93.28
2018-12-30T03:48:05.018Z,94.07
2018-12-30T03:50:47.310Z,94.24
2018-12-30T03:53:55.703Z,94.37
2018-12-30T03:56:38.241Z,94.79
2018-12-30T03:59:27.678Z,94.73
2018-12-30T04:02:09.909Z,95.21
2018-12-30T04:04:59.390Z,94.67
2018-12-30T04:07:41.974Z,94.74
2018-12-30T04:10:31.392Z,94.63
2018-12-30T04:13:13.613Z,94.72
2018-12-30T04:16:02.968Z,94.76
2018-12-30T04:18:45.485Z,94.86
2018-12-30T04:21:34.873Z,94.45
2018-12-30T04:24:17.227Z,94.82
2018-12-30T04:27:06.586Z,93.50
2018-12-30T04:29:48.366Z,92.94
2018-12-30T04:32:37.832Z,92.68
2018-12-30T04:35:19.937Z,92.93
2018-12-30T04:38:09.338Z,93.03
2018-12-30T04:40:51.081Z,92.81
2018-12-30T04:43:40.476Z,92.49
2018-12-30T04:46:10.716Z,92.78
2018-12-30T04:48:40.886Z,93.08
2018-12-30T04:51:11.227Z,92.60
2018-12-30T04:53:41.585Z,92.88
2018-12-30T04:56:11.878Z,93.02
2018-12-30T04:58:42.137Z,93.18
2018-12-30T05:01:12.387Z,92.57
2018-12-30T05:03:42.667Z,92.94
2018-12-30T05:06:12.978Z,93.24
2018-12-30T05:08:43.246Z,92.75
2018-12-30T05:11:14.766Z,92.78
2018-12-30T05:13:45.094Z,91.91
2018-12-30T05:16:15.470Z,91.51
2018-12-30T05:18:45.653Z,90.50
2018-12-30T05:21:15.936Z,90.77
2018-12-30T05:23:46.183Z,90.33
2018-12-30T05:26:16.002Z,90.12
2018-12-30T05:28:46.207Z,90.07
2018-12-30T05:31:16.432Z,90.03
2018-12-30T05:33:46.632Z,89.69
2018-12-30T05:36:16.989Z,89.41
2018-12-30T05:38:47.190Z,89.34
2018-12-30T05:41:17.515Z,89.58
2018-12-30T05:43:47.853Z,89.69
2018-12-30T05:46:18.242Z,89.74
2018-12-30T05:48:48.581Z,90.44
2018-12-30T05:51:18.853Z,90.98
2018-12-30T05:53:49.047Z,91.78
2018-12-30T05:56:19.337Z,92.10
2018-12-30T05:58:49.627Z,91.10
2018-12-30T06:01:19.913Z,91.22
2018-12-30T06:03:50.256Z,91.42
2018-12-30T06:06:20.579Z,91.87
2018-12-30T06:08:50.965Z,91.87
2018-12-30T06:11:21.326Z,91.86
2018-12-30T06:13:51.505Z,92.15
2018-12-30T06:16:21.756Z,92.77
2018-12-30T06:18:52.030Z,92.43
2018-12-30T06:21:22.309Z,92.66
2018-12-30T06:23:52.628Z,92.70
2018-12-30T06:26:22.930Z,92.90
2018-12-30T06:28:53.314Z,93.12
2018-12-30T06:31:23.695Z,92.81
2018-12-30T06:33:53.950Z,93.29
2018-12-30T06:36:24.137Z,92.98
2018-12-30T06:38:54.439Z,92.49
2018-12-30T06:41:25.014Z,92.91
2018-12-30T06:43:55.363Z,92.81
2018-12-30T06:46:25.571Z,92.48
2018-12-30T06:48:55.806Z,92.54
2018-12-30T06:51:26.120Z,92.47
2018-12-30T06:53:56.371Z,92.61
2018-12-30T06:56:26.572Z,92.91
2018-12-30T06:58:56.422Z,93.27
2018-12-30T07:01:26.757Z,92.88
2018-12-30T07:03:56.952Z,92.47
2018-12-30T07:06:27.294Z,92.22
2018-12-30T07:08:57.582Z,92.17
2018-12-30T07:11:27.892Z,92.12
2018-12-30T07:13:58.197Z,91.39
2018-12-30T07:16:28.515Z,91.97
2018-12-30T07:18:58.857Z,91.77
2018-12-30T07:21:29.001Z,91.88
2018-12-30T07:23:59.407Z,91.55
2018-12-30T07:26:29.915Z,91.73
2018-12-30T07:29:00.225Z,91.84
2018-12-30T07:31:30.397Z,91.77
2018-12-30T07:34:00.694Z,91.48
2018-12-30T07:36:30.842Z,91.44
2018-12-30T07:39:01.038Z,91.33
2018-12-30T07:41:31.168Z,91.49
2018-12-30T07:44:01.294Z,91.32
2018-12-30T07:46:31.398Z,91.52
2018-12-30T07:49:01.725Z,91.43
2018-12-30T07:51:31.952Z,91.95
2018-12-30T07:54:02.130Z,92.42
2018-12-30T07:56:32.443Z,92.40
2018-12-30T07:59:02.664Z,92.61
2018-12-30T08:01:32.966Z,92.47
2018-12-30T08:04:03.320Z,92.32
2018-12-30T08:06:35.582Z,92.35
2018-12-30T08:09:08.530Z,92.34
2018-12-30T08:11:39.025Z,92.28
2018-12-30T08:14:09.398Z,91.69
2018-12-30T08:16:39.711Z,90.83
2018-12-30T08:19:10.171Z,90.98
2018-12-30T08:21:40.399Z,90.90
2018-12-30T08:24:10.852Z,90.82
2018-12-30T08:26:41.121Z,91.39
2018-12-30T08:29:11.436Z,91.30
2018-12-30T08:31:41.708Z,90.83
2018-12-30T08:34:12.012Z,91.07
2018-12-30T08:36:42.208Z,91.14
2018-12-30T08:39:12.670Z,90.81
2018-12-30T08:41:42.966Z,90.57
2018-12-30T08:44:13.276Z,90.61
2018-12-30T08:46:43.545Z,90.18
2018-12-30T08:49:13.902Z,89.96
2018-12-30T08:51:44.080Z,90.06
2018-12-30T08:54:15.624Z,90.14
2018-12-30T08:56:45.867Z,89.18
2018-12-30T08:59:16.151Z,88.38
2018-12-30T09:01:46.412Z,87.95
2018-12-30T09:04:16.699Z,87.79
2018-12-30T09:06:47.162Z,87.13
2018-12-30T09:09:17.483Z,87.21
2018-12-30T09:11:48.707Z,87.39
2018-12-30T09:14:18.868Z,87.35
2018-12-30T09:16:49.161Z,87.29
2018-12-30T09:19:19.507Z,87.03
2018-12-30T09:21:49.744Z,87.58
2018-12-30T09:24:20.041Z,86.26
2018-12-30T09:26:50.300Z,86.45
2018-12-30T09:29:20.429Z,86.54
2018-12-30T09:31:50.702Z,86.22
2018-12-30T09:34:20.875Z,86.22
2018-12-30T09:36:51.309Z,86.14
2018-12-30T09:39:27.894Z,85.80
2018-12-30T09:41:58.179Z,84.56
2018-12-30T09:44:28.429Z,84.00
2018-12-30T09:46:58.649Z,84.48
2018-12-30T09:49:28.903Z,84.63
2018-12-30T09:51:59.161Z,84.70
2018-12-30T09:54:29.312Z,85.32
2018-12-30T09:56:59.717Z,85.59
2018-12-30T09:59:29.885Z,85.28
2018-12-30T10:02:00.263Z,85.69
2018-12-30T10:04:30.574Z,86.20
2018-12-30T10:07:00.775Z,86.05
2018-12-30T10:09:31.074Z,86.45
2018-12-30T10:12:01.324Z,86.25
2018-12-30T10:14:31.694Z,86.60
2018-12-30T10:17:02.061Z,86.60
2018-12-30T10:19:32.208Z,85.90
2018-12-30T10:22:02.590Z,85.77
2018-12-30T10:24:32.830Z,85.77
2018-12-30T10:27:03.187Z,86.15
2018-12-30T10:29:33.404Z,86.50
2018-12-30T10:32:03.730Z,87.04
2018-12-30T10:34:33.948Z,86.29
2018-12-30T10:37:10.149Z,85.70
2018-12-30T10:39:40.475Z,85.59
2018-12-30T10:42:10.976Z,85.52
2018-12-30T10:44:41.361Z,85.54
2018-12-30T10:47:11.498Z,85.80
2018-12-30T10:49:41.701Z,85.72
2018-12-30T10:52:12.096Z,85.81
2018-12-30T10:54:42.388Z,85.83
2018-12-30T10:57:12.703Z,85.36
2018-12-30T10:59:43.115Z,85.82
2018-12-30T11:02:13.488Z,86.19
2018-12-30T11:04:43.911Z,85.72
2018-12-30T11:07:14.359Z,85.39
2018-12-30T11:09:44.727Z,85.94
2018-12-30T11:12:15.198Z,85.34
2018-12-30T11:14:45.496Z,85.56
2018-12-30T11:17:15.879Z,85.84
2018-12-30T11:19:46.143Z,85.87
2018-12-30T11:22:16.690Z,86.23
2018-12-30T11:24:46.983Z,86.88
2018-12-30T11:27:17.499Z,88.46
2018-12-30T11:29:47.919Z,86.87
2018-12-30T11:32:18.328Z,87.35
2018-12-30T11:34:48.741Z,87.69
2018-12-30T11:37:19.177Z,87.64
2018-12-30T11:39:49.449Z,87.66
2018-12-30T11:42:19.903Z,87.79
2018-12-30T11:44:50.203Z,86.56
2018-12-30T11:47:20.481Z,86.43
2018-12-30T11:49:50.744Z,85.51
2018-12-30T11:52:21.199Z,86.06
2018-12-30T11:54:51.549Z,86.56
2018-12-30T11:57:22.034Z,86.56
2018-12-30T11:59:52.196Z,85.96
2018-12-30T12:02:24.224Z,85.02
2018-12-30T12:04:54.695Z,86.26
2018-12-30T12:07:25.066Z,86.59
2018-12-30T12:09:55.296Z,87.46
2018-12-30T12:12:25.706Z,85.46
2018-12-30T12:14:56.034Z,85.39
2018-12-30T12:17:26.384Z,86.61
2018-12-30T12:19:56.845Z,86.99
2018-12-30T12:22:27.118Z,86.02
2018-12-30T12:24:57.452Z,85.83
2018-12-30T12:27:27.786Z,85.92
2018-12-30T12:29:58.182Z,86.04
2018-12-30T12:32:28.550Z,85.72
2018-12-30T12:34:59.977Z,85.99
2018-12-30T12:37:29.753Z,85.69
2018-12-30T12:40:00.180Z,85.92
2018-12-30T12:42:30.609Z,86.00
2018-12-30T12:45:00.935Z,85.94
2018-12-30T12:47:31.376Z,85.46
2018-12-30T12:50:01.181Z,85.17
2018-12-30T12:52:31.489Z,86.21
2018-12-30T12:55:01.912Z,86.63
2018-12-30T12:57:32.167Z,86.71
2018-12-30T13:00:02.584Z,86.11
2018-12-30T13:02:33.053Z,86.18
2018-12-30T13:05:03.496Z,86.35
2018-12-30T13:07:33.802Z,86.47
2018-12-30T13:10:04.812Z,86.81
2018-12-30T13:12:35.168Z,86.68
2018-12-30T13:15:06.290Z,87.31
2018-12-30T13:17:36.612Z,87.33
2018-12-30T13:20:07.464Z,87.64
2018-12-30T13:22:37.777Z,87.76
2018-12-30T13:25:08.197Z,87.48
2018-12-30T13:27:38.589Z,88.32
2018-12-30T13:30:09.751Z,87.96
2018-12-30T13:32:41.104Z,87.78
2018-12-30T13:35:11.388Z,88.14
2018-12-30T13:37:41.830Z,88.17
2018-12-30T13:40:12.286Z,88.00
2018-12-30T13:42:42.595Z,88.25
2018-12-30T13:45:13.026Z,88.58
2018-12-30T13:47:43.359Z,88.77
2018-12-30T13:50:13.651Z,87.81
2018-12-30T13:52:43.962Z,87.67
2018-12-30T13:55:14.209Z,87.57
2018-12-30T13:57:44.481Z,87.67
2018-12-30T14:00:14.829Z,88.53
2018-12-30T14:02:45.209Z,87.88
2018-12-30T14:05:16.513Z,87.94
2018-12-30T14:07:46.911Z,87.48
2018-12-30T14:10:17.283Z,87.71
2018-12-30T14:12:47.555Z,86.91
2018-12-30T14:15:17.982Z,87.19
2018-12-30T14:17:48.304Z,87.23
2018-12-30T14:20:18.491Z,86.85
2018-12-30T14:22:48.858Z,87.05
2018-12-30T14:25:19.184Z,86.58
2018-12-30T14:27:49.498Z,86.45
2018-12-30T14:30:19.941Z,86.84
2018-12-30T14:32:50.309Z,87.54
2018-12-30T14:35:20.679Z,86.72
2018-12-30T14:37:50.995Z,87.42
2018-12-30T14:40:21.459Z,87.73
2018-12-30T14:42:51.844Z,87.97
2018-12-30T14:45:22.275Z,88.32
2018-12-30T14:47:52.622Z,88.33
2018-12-30T14:50:22.978Z,88.19
2018-12-30T14:52:53.334Z,88.22
2018-12-30T14:55:23.675Z,88.08
2018-12-30T14:57:54.007Z,87.95
2018-12-30T15:00:24.439Z,88.28
2018-12-30T15:02:54.803Z,88.38
2018-12-30T15:05:25.155Z,89.90
2018-12-30T15:07:55.411Z,88.22
2018-12-30T15:10:28.440Z,88.04
2018-12-30T15:12:58.896Z,90.75
2018-12-30T15:15:29.255Z,89.53
2018-12-30T15:17:59.649Z,88.32
2018-12-30T15:20:30.036Z,89.00
2018-12-30T15:23:00.421Z,88.87
2018-12-30T15:25:31.020Z,88.91
2018-12-30T15:28:01.387Z,89.36
2018-12-30T15:30:31.608Z,89.13
2018-12-30T15:33:01.831Z,90.05
2018-12-30T15:35:31.994Z,89.31
2018-12-30T15:38:02.239Z,91.69
2018-12-30T15:40:32.593Z,90.28
2018-12-30T15:43:02.907Z,91.11
2018-12-30T15:45:32.783Z,91.47
2018-12-30T15:48:03.224Z,91.32
2018-12-30T15:50:33.612Z,91.94
2018-12-30T15:53:04.038Z,91.78
2018-12-30T15:55:34.419Z,92.54
2018-12-30T15:58:04.733Z,91.73
2018-12-30T16:00:34.973Z,91.20
2018-12-30T16:03:05.305Z,93.73
2018-12-30T16:05:35.767Z,91.50
2018-12-30T16:08:06.174Z,92.07
2018-12-30T16:10:36.757Z,90.87
2018-12-30T16:13:07.210Z,91.87
2018-12-30T16:15:37.606Z,91.46
2018-12-30T16:18:07.963Z,91.46
2018-12-30T16:20:38.486Z,91.92
2018-12-30T16:23:08.929Z,90.60
2018-12-30T16:25:39.403Z,91.78
2018-12-30T16:28:09.874Z,90.72
2018-12-30T16:30:40.447Z,91.47
2018-12-30T16:33:10.750Z,92.06
2018-12-30T16:35:44.542Z,92.05
2018-12-30T16:38:17.443Z,92.14
2018-12-30T16:40:50.687Z,92.27
2018-12-30T16:43:20.888Z,92.59
2018-12-30T16:45:51.321Z,92.24
2018-12-30T16:48:21.789Z,92.07
2018-12-30T16:50:52.293Z,91.18
2018-12-30T16:53:22.630Z,92.13
2018-12-30T16:55:53.115Z,91.86
2018-12-30T16:58:24.497Z,91.93
2018-12-30T17:00:55.059Z,92.36
2018-12-30T17:03:25.366Z,93.47
2018-12-30T17:05:55.785Z,93.40
2018-12-30T17:08:26.191Z,94.05
2018-12-30T17:10:57.484Z,94.44
2018-12-30T17:13:27.936Z,94.79
2018-12-30T17:15:58.328Z,94.82
2018-12-30T17:18:28.930Z,95.29
2018-12-30T17:20:59.563Z,95.69
2018-12-30T17:23:29.889Z,95.94
2018-12-30T17:26:00.158Z,95.53
2018-12-30T17:28:30.632Z,95.53
2018-12-30T17:31:01.053Z,95.62
2018-12-30T17:33:31.420Z,95.52
2018-12-30T17:36:01.703Z,95.53
2018-12-30T17:38:31.513Z,95.71
2018-12-30T17:41:02.008Z,95.41
2018-12-30T17:43:31.802Z,95.38
2018-12-30T17:46:02.190Z,94.60
2018-12-30T17:48:32.565Z,94.64
2018-12-30T17:51:02.990Z,94.25
2018-12-30T17:53:33.296Z,94.46
2018-12-30T17:56:03.956Z,93.95
2018-12-30T17:58:34.387Z,94.40
2018-12-30T18:01:04.848Z,93.87
2018-12-30T18:03:35.119Z,93.78
2018-12-30T18:06:05.572Z,94.11
2018-12-30T18:08:36.046Z,94.17
2018-12-30T18:11:06.431Z,93.60
2018-12-30T18:13:36.783Z,93.81
2018-12-30T18:16:07.265Z,93.96
2018-12-30T18:18:37.598Z,94.06
2018-12-30T18:21:07.995Z,93.95
2018-12-30T18:23:39.346Z,94.31
2018-12-30T18:26:09.943Z,93.62
2018-12-30T18:28:40.472Z,93.73
2018-12-30T18:31:10.364Z,94.54
2018-12-30T18:33:40.931Z,94.61
2018-12-30T18:36:11.430Z,94.68
2018-12-30T18:38:41.832Z,94.62
2018-12-30T18:41:12.222Z,94.40
2018-12-30T18:43:42.698Z,94.48
2018-12-30T18:46:13.161Z,94.36
2018-12-30T18:48:43.540Z,94.17
2018-12-30T18:51:13.855Z,94.57
2018-12-30T18:53:44.221Z,94.24
2018-12-30T18:56:14.632Z,93.86
2018-12-30T18:58:45.033Z,94.09
2018-12-30T19:01:15.440Z,93.76
2018-12-30T19:03:45.940Z,93.50
2018-12-30T19:06:16.351Z,94.08
2018-12-30T19:08:46.635Z,94.22
2018-12-30T19:11:17.029Z,94.18
2018-12-30T19:13:47.367Z,93.93
2018-12-30T19:16:17.724Z,94.02
2018-12-30T19:18:47.997Z,94.08
2018-12-30T19:21:18.452Z,93.71
2018-12-30T19:23:48.697Z,94.16
2018-12-30T19:26:19.073Z,94.26
2018-12-30T19:28:49.689Z,94.76
2018-12-30T19:31:20.005Z,95.11
2018-12-30T19:33:50.363Z,95.03
2018-12-30T19:36:20.803Z,94.66
2018-12-30T19:38:51.128Z,94.88
2018-12-30T19:41:21.734Z,95.36
2018-12-30T19:43:52.073Z,95.02
2018-12-30T19:46:22.570Z,94.71
2018-12-30T19:48:52.907Z,94.26
2018-12-30T19:51:23.222Z,94.32
2018-12-30T19:53:53.550Z,94.18
2018-12-30T19:56:24.000Z,94.29
2018-12-30T19:58:54.421Z,94.73
2018-12-30T20:01:24.798Z,94.88
2018-12-30T20:03:55.419Z,94.65
2018-12-30T20:06:25.906Z,94.56
2018-12-30T20:08:56.486Z,94.69
2018-12-30T20:11:27.063Z,94.52
2018-12-30T20:13:57.474Z,94.66
2018-12-30T20:16:27.943Z,95.15
2018-12-30T20:18:58.161Z,95.29
2018-12-30T20:21:28.611Z,95.73
2018-12-30T20:23:58.979Z,96.27
2018-12-30T20:26:30.038Z,96.86
2018-12-30T20:29:00.508Z,97.15
2018-12-30T20:31:30.928Z,97.75
2018-12-30T20:34:01.301Z,98.13
2018-12-30T20:36:31.540Z,98.75
2018-12-30T20:39:01.810Z,99.69
2018-12-30T20:41:32.108Z,99.51
2018-12-30T20:44:02.257Z,99.60
2018-12-30T20:46:32.716Z,100.00
2018-12-30T20:49:03.036Z,100.00
2018-12-30T20:51:33.460Z,100.00
2018-12-30T20:54:03.751Z,100.00
2018-12-30T20:56:37.856Z,100.00
2018-12-30T20:59:06.850Z,100.00
2018-12-30T21:01:37.403Z,100.00
2018-12-30T21:04:07.931Z,100.00
2018-12-30T21:09:01.763Z,100.00
2018-12-30T21:11:32.232Z,100.00
2018-12-30T21:14:02.644Z,100.00
2018-12-30T21:16:33.012Z,100.00
2018-12-30T21:19:03.412Z,100.00
2018-12-30T21:21:33.770Z,100.00
2018-12-30T21:24:03.942Z,100.00
2018-12-30T21:26:34.410Z,100.00
2018-12-30T21:29:04.800Z,100.00
2018-12-30T21:31:36.117Z,100.00
2018-12-30T21:34:06.529Z,100.00
2018-12-30T21:36:36.908Z,100.00
2018-12-30T21:39:09.399Z,100.00
2018-12-30T21:41:39.774Z,100.00
2018-12-30T21:44:10.140Z,100.00
2018-12-30T21:46:40.527Z,100.00
2018-12-30T21:49:10.795Z,100.00
2018-12-30T21:51:41.341Z,100.00
2018-12-30T21:54:11.163Z,100.00
2018-12-30T21:56:41.475Z,100.00
2018-12-30T21:59:11.745Z,100.00
2018-12-30T22:01:42.085Z,100.00
2018-12-30T22:04:12.277Z,100.00
2018-12-30T22:06:42.654Z,100.00
2018-12-30T22:09:13.100Z,100.00
2018-12-30T22:11:43.573Z,100.00
2018-12-30T22:14:13.833Z,100.00
2018-12-30T22:16:44.246Z,100.00
2018-12-30T22:19:14.608Z,100.00
2018-12-30T22:21:44.399Z,100.00
2018-12-30T22:24:14.808Z,100.00
2018-12-30T22:26:45.093Z,100.00
2018-12-30T22:29:15.493Z,100.00
2018-12-30T22:31:45.358Z,100.00
2018-12-30T22:34:15.965Z,100.00
2018-12-30T22:36:46.212Z,100.00
2018-12-30T22:39:16.681Z,100.00
2018-12-30T22:41:46.962Z,100.00
2018-12-30T22:44:17.285Z,100.00
2018-12-30T22:46:47.766Z,100.00
2018-12-30T22:49:18.069Z,100.00
2018-12-30T22:51:47.936Z,100.00
2018-12-30T22:54:18.274Z,100.00
2018-12-30T22:56:48.631Z,100.00
2018-12-30T22:59:19.067Z,100.00
2018-12-30T23:01:49.793Z,100.00
2018-12-30T23:04:20.172Z,100.00
2018-12-30T23:06:50.648Z,100.00
2018-12-30T23:09:20.999Z,100.00
2018-12-30T23:11:51.734Z,100.00
2018-12-30T23:14:22.053Z,100.00
2018-12-30T23:16:52.383Z,100.00
2018-12-30T23:19:23.624Z,100.00
2018-12-30T23:21:55.070Z,100.00
2018-12-30T23:24:25.553Z,100.00
2018-12-30T23:26:56.022Z,100.00
2018-12-30T23:29:26.268Z,100.00
2018-12-30T23:31:56.526Z,100.00
2018-12-30T23:34:26.769Z,100.00
2018-12-30T23:36:57.021Z,100.00
2018-12-30T23:39:27.336Z,100.00
2018-12-30T23:41:57.800Z,100.00
2018-12-30T23:44:28.184Z,100.00
2018-12-30T23:46:58.484Z,100.00
2018-12-30T23:49:28.747Z,100.00
2018-12-30T23:51:58.985Z,100.00
2018-12-30T23:54:29.283Z,100.00
2018-12-30T23:56:59.546Z,100.00
2018-12-30T23:59:29.680Z,100.00
